Time;durP1;ratioP1;P1;durP2;ratioP2;P2;SDS_P1;SDS_P2;PMS_P1;PMS_P2;Temp;Humidity;BMP_temperature;BMP_pressure;BME280_temperature;BME280_humidity;BME280_pressure;Samples;Min_cycle;Max_cycle;Signal;HPM_P1;HPM_P2
2020/12/28 00:00:32;;;;;;;1.48;0.70;;;6.60;91.10;;;6.65;76.67;96700.47;5087717;28;20048;-84
2020/12/28 00:02:58;;;;;;;1.27;0.60;;;6.60;91.20;;;6.66;76.66;96695.88;5087538;28;20575;-84
2020/12/28 00:05:26;;;;;;;3.67;0.80;;;6.80;91.40;;;6.60;76.69;96697.72;5087425;28;20079;-85
2020/12/28 00:07:54;;;;;;;1.40;0.70;;;6.60;91.30;;;6.64;76.68;96698.03;5087022;28;20079;-84
2020/12/28 00:10:21;;;;;;;1.75;0.70;;;6.60;91.20;;;6.67;76.54;96696.72;5086912;28;20106;-84
2020/12/28 00:12:49;;;;;;;2.53;0.60;;;6.60;91.50;;;6.67;76.24;96689.44;5087310;28;20434;-84
2020/12/28 00:15:19;;;;;;;1.88;0.82;;;6.50;91.40;;;6.61;76.75;96674.25;5087249;28;20060;-84
2020/12/28 00:17:47;;;;;;;1.20;0.63;;;6.60;91.40;;;6.59;76.81;96674.47;5087155;28;20060;-84
2020/12/28 00:20:15;;;;;;;2.03;0.80;;;6.60;91.20;;;6.64;76.77;96677.25;5086808;28;20076;-85
2020/12/28 00:22:42;;;;;;;1.60;0.70;;;6.50;91.50;;;6.53;76.67;96680.91;5086340;28;20078;-85
2020/12/28 00:25:09;;;;;;;2.15;0.80;;;6.70;91.40;;;6.58;76.34;96689.03;5087474;28;20047;-84
2020/12/28 00:27:36;;;;;;;1.15;0.60;;;6.50;91.20;;;6.54;76.54;96685.22;5085623;28;20200;-84
2020/12/28 00:30:05;;;;;;;2.22;0.70;;;6.50;91.10;;;6.61;76.49;96685.03;5087267;28;20048;-84
2020/12/28 00:32:35;;;;;;;1.73;0.80;;;6.50;91.20;;;6.67;76.65;96683.22;5073799;28;20093;-84
2020/12/28 00:35:02;;;;;;;1.98;0.70;;;6.50;91.60;;;6.68;76.35;96674.81;5073706;28;20075;-84
2020/12/28 00:37:29;;;;;;;1.98;0.88;;;6.50;91.60;;;6.59;76.76;96669.09;5073222;28;20041;-84
2020/12/28 00:39:56;;;;;;;1.42;0.73;;;6.70;91.70;;;6.63;76.66;96686.41;5072197;28;20127;-84
2020/12/28 00:42:23;;;;;;;1.27;0.60;;;6.60;91.60;;;6.60;76.11;96683.41;5073515;28;20076;-84
2020/12/28 00:44:50;;;;;;;1.70;0.70;;;6.50;91.50;;;6.59;76.27;96669.09;5071775;28;20047;-84
2020/12/28 00:47:18;;;;;;;2.00;0.70;;;6.50;91.50;;;6.61;76.83;96672.34;5073122;28;20068;-84
2020/12/28 00:49:45;;;;;;;1.55;0.57;;;6.50;91.70;;;6.63;76.81;96678.31;5072878;28;20053;-85
2020/12/28 00:52:11;;;;;;;1.73;0.70;;;6.50;91.70;;;6.68;76.56;96674.03;5073296;28;20123;-84
2020/12/28 00:54:38;;;;;;;1.75;0.65;;;6.50;91.80;;;6.70;76.58;96671.88;5071809;28;20060;-85
2020/12/28 00:57:05;;;;;;;2.17;0.80;;;6.40;92.10;;;6.69;76.66;96667.56;5071604;28;20522;-85
2020/12/28 00:59:33;;;;;;;1.25;0.55;;;6.50;92.40;;;6.73;76.72;96668.69;5071649;28;20051;-84
2020/12/28 01:02:00;;;;;;;2.65;0.70;;;6.50;92.50;;;6.66;76.77;96663.47;5072029;28;20049;-84
2020/12/28 01:04:32;;;;;;;;;;;6.50;92.10;;;6.64;76.67;96666.44;5072552;28;20040;-85
2020/12/28 01:07:02;;;;;;;1.95;0.80;;;6.50;92.30;;;6.61;76.70;96666.94;5071615;28;19924;-85
2020/12/28 01:09:55;;;;;;;1.60;0.70;;;6.50;92.20;;;6.62;76.94;96668.56;5071808;28;20432;-85
2020/12/28 01:12:22;;;;;;;1.58;0.70;;;6.50;92.20;;;6.62;77.39;96662.34;5071635;28;20492;-84
2020/12/28 01:14:53;;;;;;;;;;;6.50;92.20;;;6.66;77.21;96663.47;5071737;28;20131;-84
2020/12/28 01:17:26;;;;;;;2.47;0.90;;;6.50;92.50;;;6.68;76.84;96666.72;5070903;28;20384;-84
2020/12/28 01:20:11;;;;;;;1.75;0.77;;;6.60;92.80;;;6.59;77.17;96660.97;5071572;28;20049;-84
2020/12/28 01:22:38;;;;;;;1.95;0.60;;;6.50;92.30;;;6.62;77.18;96660.44;5071611;28;20086;-84
2020/12/28 01:25:06;;;;;;;1.50;0.70;;;6.50;92.70;;;6.68;77.14;96663.22;5073048;28;20670;-84
2020/12/28 01:27:44;;;;;;;1.88;0.77;;;6.50;92.80;;;6.64;77.17;96666.44;5070259;28;20044;-84
2020/12/28 01:30:11;;;;;;;2.17;0.80;;;6.50;92.70;;;6.62;77.00;96675.84;5070299;28;20041;-85
2020/12/28 01:32:38;;;;;;;1.42;0.60;;;6.50;92.40;;;6.67;76.76;96675.09;5071306;28;20135;-84
2020/12/28 01:35:23;;;;;;;1.42;0.60;;;6.50;92.60;;;6.65;77.60;96678.88;5071117;28;20106;-84
2020/12/28 01:37:51;;;;;;;1.52;0.68;;;6.50;92.60;;;6.63;77.13;96675.59;5053595;28;20079;-84
2020/12/28 01:40:17;;;;;;;2.33;0.80;;;6.50;92.60;;;6.65;77.23;96683.47;5052436;28;20124;-84
2020/12/28 01:42:44;;;;;;;2.25;0.85;;;6.50;92.70;;;6.69;77.23;96679.19;5050010;28;20068;-84
2020/12/28 01:45:11;;;;;;;2.15;0.70;;;6.50;92.90;;;6.70;77.27;96679.97;5067357;28;20055;-85
2020/12/28 01:47:40;;;;;;;1.67;0.80;;;6.50;92.70;;;6.70;77.25;96682.69;5074458;28;20118;-84
2020/12/28 01:50:09;;;;;;;1.02;0.68;;;6.50;92.70;;;6.70;76.82;96679.97;5064381;28;20055;-84
2020/12/28 01:52:38;;;;;;;1.92;0.82;;;6.50;92.70;;;6.70;77.23;96675.41;5070900;28;20106;-84
2020/12/28 01:55:06;;;;;;;1.88;0.80;;;6.50;92.70;;;6.73;77.18;96677.59;5070668;28;20062;-85
2020/12/28 01:57:48;;;;;;;3.30;0.90;;;6.70;92.80;;;6.70;77.15;96683.53;5070076;28;20102;-84
2020/12/28 02:00:15;;;;;;;2.78;0.90;;;6.50;92.70;;;6.73;77.59;96683.00;5071879;28;20044;-84
2020/12/28 02:02:46;;;;;;;2.00;0.80;;;6.50;93.00;;;6.74;77.12;96683.81;5070350;28;20499;-84
2020/12/28 02:05:26;;;;;;;1.63;0.80;;;6.70;92.90;;;6.68;77.39;96687.53;5070508;28;20328;-85
2020/12/28 02:07:56;;;;;;;1.85;0.82;;;6.50;93.10;;;6.73;77.52;96693.00;5070149;28;20056;-84
2020/12/28 02:10:23;;;;;;;3.08;0.80;;;6.50;93.40;;;6.75;77.82;96694.38;5070293;28;20044;-85
2020/12/28 02:12:50;;;;;;;2.65;0.95;;;6.50;93.60;;;6.68;77.37;96690.22;5070639;28;20060;-84
2020/12/28 02:15:17;;;;;;;2.30;0.93;;;6.60;93.30;;;6.67;77.75;96691.31;5070170;28;20065;-85
2020/12/28 02:18:22;;;;;;;2.17;0.82;;;6.50;93.30;;;6.68;77.65;96692.94;5071517;28;20516;-84
2020/12/28 02:21:14;;;;;;;2.30;1.10;;;6.50;93.30;;;6.64;77.59;96690.75;5070179;28;20052;-84
2020/12/28 02:23:43;;;;;;;2.00;0.90;;;6.50;93.30;;;6.62;78.37;96694.75;5071822;28;20044;-84
2020/12/28 02:26:10;;;;;;;1.98;0.90;;;6.50;93.40;;;6.65;77.57;96696.97;5070292;28;20044;-84
2020/12/28 02:28:37;;;;;;;2.10;0.85;;;6.50;93.50;;;6.72;77.61;96699.47;5069837;28;20048;-84
2020/12/28 02:31:04;;;;;;;1.55;0.80;;;6.50;93.70;;;6.69;77.25;96691.88;5070226;28;20040;-85
2020/12/28 02:33:45;;;;;;;2.08;1.00;;;6.50;93.50;;;6.59;77.44;96696.09;5070151;28;20428;-84
2020/12/28 02:36:20;;;;;;;2.33;1.10;;;6.50;93.40;;;6.67;77.65;96696.72;5070375;28;20052;-85
2020/12/28 02:38:48;;;;;;;2.15;0.90;;;6.50;93.30;;;6.64;78.02;96693.47;5069875;28;20050;-84
2020/12/28 02:41:15;;;;;;;2.15;0.90;;;6.50;93.70;;;6.63;77.89;96697.22;5069979;28;20071;-83
2020/12/28 02:44:00;;;;;;;2.00;0.98;;;6.50;93.80;;;6.65;78.12;96695.06;5071589;28;20113;-83
2020/12/28 02:46:46;;;;;;;2.03;0.90;;;6.40;94.00;;;6.65;78.09;96692.38;5071400;28;20526;-83
2020/12/28 02:49:48;;;;;;;2.85;1.05;;;6.50;94.00;;;6.61;77.81;96693.97;5028630;28;20042;-83
2020/12/28 02:52:33;;;;;;;3.45;0.93;;;6.40;93.80;;;6.66;77.76;96690.47;5068339;28;20122;-83
2020/12/28 02:55:19;;;;;;;2.30;1.10;;;6.40;94.00;;;6.69;77.95;96691.88;5071572;28;20059;-83
2020/12/28 02:58:04;;;;;;;2.35;1.15;;;6.40;94.20;;;6.69;78.47;96691.88;5070999;28;20190;-83
2020/12/28 03:00:49;;;;;;;1.83;0.90;;;6.40;94.20;;;6.71;77.58;96695.13;5071557;28;20059;-83
2020/12/28 03:03:35;;;;;;;2.35;1.00;;;6.40;94.30;;;6.70;78.01;96694.34;5070911;28;20059;-84
2020/12/28 03:06:20;;;;;;;2.13;1.00;;;6.40;94.30;;;6.63;78.20;96694.50;5071052;28;20104;-83
2020/12/28 03:09:05;;;;;;;2.20;1.00;;;6.40;94.20;;;6.63;78.33;96699.91;5070909;28;20055;-83
2020/12/28 03:11:51;;;;;;;2.70;1.13;;;6.40;94.50;;;6.62;78.53;96702.88;5071323;28;20090;-83
2020/12/28 03:14:37;;;;;;;3.78;1.20;;;6.40;94.50;;;6.67;78.57;96696.72;5071064;28;20047;-83
2020/12/28 03:17:22;;;;;;;2.42;1.02;;;6.40;94.60;;;6.70;78.31;96696.19;5070297;28;20060;-83
2020/12/28 03:20:08;;;;;;;3.08;1.00;;;6.50;94.60;;;6.70;78.25;96688.94;5070815;28;20056;-83
2020/12/28 03:22:53;;;;;;;3.72;1.10;;;6.50;94.40;;;6.69;78.50;96687.28;5071275;28;20094;-83
2020/12/28 03:25:38;;;;;;;2.33;1.10;;;6.50;94.40;;;6.69;78.33;96683.78;5070686;28;20055;-83
2020/12/28 03:28:24;;;;;;;2.13;1.08;;;6.50;94.20;;;6.70;78.23;96679.97;5070597;28;20542;-83
2020/12/28 03:31:10;;;;;;;2.67;1.17;;;6.70;94.30;;;6.72;78.24;96677.84;5070836;28;20083;-83
2020/12/28 03:33:55;;;;;;;2.63;1.00;;;6.50;94.20;;;6.73;78.44;96669.47;5071195;28;20067;-83
2020/12/28 03:36:41;;;;;;;2.63;0.95;;;6.50;94.40;;;6.68;78.24;96674.03;5070775;28;20523;-84
2020/12/28 03:39:26;;;;;;;2.47;0.93;;;6.50;94.50;;;6.66;78.38;96676.97;5070876;28;20677;-83
2020/12/28 03:42:11;;;;;;;2.58;1.10;;;6.50;94.30;;;6.67;77.90;96685.91;5070959;28;20125;-84
2020/12/28 03:44:57;;;;;;;2.38;1.10;;;6.50;94.00;;;6.67;78.13;96692.13;5070845;28;20143;-83
2020/12/28 03:47:43;;;;;;;2.28;1.15;;;6.50;94.20;;;6.67;78.23;96697.53;5068983;28;20047;-83
2020/12/28 03:50:28;;;;;;;2.35;1.10;;;6.50;94.40;;;6.65;78.90;96700.47;5070693;28;20055;-83
2020/12/28 03:53:13;;;;;;;1.83;0.95;;;6.50;94.20;;;6.68;78.58;96699.16;5070935;28;20059;-83
2020/12/28 03:55:59;;;;;;;2.60;1.05;;;6.50;94.20;;;6.70;78.32;96702.44;5070492;28;20078;-83
2020/12/28 03:58:51;;;;;;;2.15;1.10;;;6.60;94.20;;;6.68;78.23;96704.56;5061372;28;20052;-83
2020/12/28 04:01:38;;;;;;;2.15;1.10;;;6.50;94.20;;;6.69;78.30;96708.09;5070761;28;20089;-84
2020/12/28 04:04:23;;;;;;;2.25;1.08;;;6.50;94.30;;;6.68;78.11;96711.84;5070778;28;20324;-83
2020/12/28 04:07:22;;;;;;;2.13;0.93;;;6.40;94.30;;;6.72;78.85;96715.66;5060436;28;20060;-83
2020/12/28 04:10:08;;;;;;;2.35;1.20;;;6.50;94.50;;;6.72;78.35;96723.78;5074615;28;20067;-84
2020/12/28 04:12:53;;;;;;;2.20;1.00;;;6.50;94.40;;;6.67;78.17;96716.44;5074703;28;20051;-84
2020/12/28 04:15:20;;;;;;;4.55;1.38;;;6.50;94.30;;;6.70;78.52;96718.66;5074277;28;20637;-84
2020/12/28 04:17:47;;;;;;;2.45;1.20;;;6.50;94.50;;;6.75;78.38;96725.97;5073549;28;20049;-83
2020/12/28 04:20:14;;;;;;;2.97;1.10;;;6.50;94.70;;;6.73;78.23;96723.53;5073751;28;20047;-83
2020/12/28 04:22:41;;;;;;;2.22;1.08;;;6.50;94.80;;;6.74;78.47;96724.34;5074112;28;20123;-83
2020/12/28 04:25:07;;;;;;;2.80;1.30;;;6.50;94.50;;;6.76;78.54;96723.03;5073963;28;20135;-83
2020/12/28 04:27:34;;;;;;;2.35;1.17;;;6.50;94.90;;;6.74;78.53;96724.34;5073471;28;20087;-83
2020/12/28 04:30:01;;;;;;;2.22;1.17;;;6.50;94.80;;;6.72;78.79;96726.47;5072310;28;20074;-83
2020/12/28 04:32:27;;;;;;;2.95;1.25;;;6.50;94.70;;;6.70;78.42;96712.41;5073735;28;20127;-83
2020/12/28 04:34:55;;;;;;;2.00;1.08;;;6.50;94.80;;;6.72;78.24;96723.78;5073646;28;20503;-83
2020/12/28 04:37:22;;;;;;;2.40;1.10;;;6.50;94.90;;;6.70;78.92;96720.50;5073455;28;20495;-84
2020/12/28 04:39:48;;;;;;;2.90;1.10;;;6.50;94.80;;;6.67;78.55;96716.44;5073670;28;20131;-83
2020/12/28 04:42:24;;;;;;;2.67;1.17;;;6.60;94.40;;;6.69;79.26;96716.19;5073970;28;20072;-83
2020/12/28 04:44:50;;;;;;;2.95;1.20;;;6.50;94.60;;;6.70;79.34;96723.22;5073952;28;20048;-83
2020/12/28 04:47:17;;;;;;;2.50;1.05;;;6.50;94.70;;;6.68;78.58;96719.94;5073307;28;20058;-83
2020/12/28 04:49:46;;;;;;;2.08;1.10;;;6.50;94.50;;;6.64;79.38;96715.06;5073554;28;20133;-83
2020/12/28 04:52:15;;;;;;;2.95;1.00;;;6.50;94.70;;;6.68;79.39;96717.25;5073369;28;20067;-84
2020/12/28 04:54:44;;;;;;;2.33;1.20;;;6.50;94.80;;;6.62;79.23;96713.69;5072333;28;20555;-83
2020/12/28 04:57:11;;;;;;;3.30;1.20;;;6.50;94.50;;;6.60;78.87;96711.22;5073113;28;20120;-83
2020/12/28 04:59:37;;;;;;;2.05;1.02;;;6.50;94.40;;;6.64;78.99;96704.25;5073326;28;20083;-84
2020/12/28 05:02:06;;;;;;;3.03;1.17;;;6.50;94.40;;;6.61;79.00;96699.34;5073434;28;20055;-83
2020/12/28 05:04:33;;;;;;;2.67;1.33;;;6.50;94.40;;;6.66;79.20;96695.88;5073375;28;20059;-83
2020/12/28 05:07:02;;;;;;;3.38;1.30;;;6.50;94.60;;;6.63;79.07;96699.09;5073621;28;20456;-83
2020/12/28 05:09:30;;;;;;;2.67;1.38;;;6.50;94.60;;;6.68;79.11;96696.44;5073133;28;20120;-83
2020/12/28 05:11:58;;;;;;;3.28;1.35;;;6.50;94.60;;;6.73;78.76;96698.41;5073203;28;20162;-83
2020/12/28 05:14:26;;;;;;;2.83;1.45;;;6.50;94.80;;;6.74;78.21;96700.84;5072848;28;20157;-83
2020/12/28 05:16:58;;;;;;;2.90;1.40;;;6.60;94.80;;;6.76;78.82;96697.88;5072813;28;20445;-83
2020/12/28 05:19:25;;;;;;;3.20;1.70;;;6.50;95.00;;;6.76;78.93;96698.72;5072419;28;20510;-83
2020/12/28 05:21:53;;;;;;;4.15;1.42;;;6.50;95.00;;;6.75;78.54;96705.16;5072820;28;20755;-83
2020/12/28 05:24:20;;;;;;;5.50;1.65;;;6.50;95.00;;;6.76;78.21;96708.69;5072966;28;20478;-83
2020/12/28 05:26:48;;;;;;;3.30;1.63;;;6.50;95.10;;;6.76;78.98;96711.38;5072838;28;20480;-83
2020/12/28 05:29:17;;;;;;;2.72;1.60;;;6.50;94.90;;;6.76;79.23;96711.38;5072307;28;20135;-84
2020/12/28 05:31:45;;;;;;;4.05;1.73;;;6.50;95.10;;;6.74;78.76;96708.13;5072485;28;20048;-83
2020/12/28 05:34:17;;;;;;;4.30;2.20;;;6.50;95.20;;;6.74;78.98;96716.22;5072602;28;20607;-83
2020/12/28 05:36:47;;;;;;;6.65;3.47;;;6.70;95.50;;;6.70;79.05;96717.81;5072773;28;20085;-83
2020/12/28 05:39:16;;;;;;;4.90;2.33;;;6.50;95.20;;;6.72;78.92;96716.50;5072534;28;20051;-83
2020/12/28 05:42:06;;;;;;;4.50;2.22;;;6.50;95.00;;;6.73;78.51;96717.31;5072311;28;20036;-83
2020/12/28 05:44:33;;;;;;;3.28;2.00;;;6.60;94.80;;;6.71;78.68;96714.06;5072550;28;20078;-83
2020/12/28 05:47:07;;;;;;;4.35;2.00;;;6.50;94.70;;;6.74;78.83;96716.22;5071961;28;20052;-83
2020/12/28 05:49:36;;;;;;;3.83;1.83;;;6.60;94.70;;;6.76;78.29;96708.69;5072127;28;20091;-84
2020/12/28 05:52:05;;;;;;;4.03;2.38;;;6.50;94.80;;;6.78;79.18;96717.38;5072433;28;20075;-84
2020/12/28 05:54:33;;;;;;;3.22;1.90;;;6.50;95.10;;;6.79;78.52;96719.00;5071914;28;20146;-84
2020/12/28 05:57:01;;;;;;;3.38;2.03;;;6.50;94.90;;;6.81;78.27;96727.66;5072306;28;20068;-83
2020/12/28 05:59:30;;;;;;;5.28;2.17;;;6.50;95.10;;;6.80;78.75;96728.75;5071742;28;20603;-83
2020/12/28 06:01:58;;;;;;;3.22;1.95;;;6.50;95.10;;;6.79;78.69;96732.50;5072135;28;20048;-83
2020/12/28 06:04:25;;;;;;;4.22;2.42;;;6.50;95.00;;;6.79;78.67;96733.31;5070797;28;20087;-83
2020/12/28 06:06:57;;;;;;;5.30;2.08;;;6.50;94.90;;;6.78;78.63;96730.88;5072249;28;20044;-83
2020/12/28 06:09:24;;;;;;;3.60;2.40;;;6.50;94.70;;;6.78;78.75;96733.59;5071798;28;20123;-84
2020/12/28 06:12:03;;;;;;;5.22;1.83;;;6.50;94.80;;;6.76;78.08;96733.84;5072061;28;20471;-83
2020/12/28 06:14:34;;;;;;;3.60;1.90;;;6.50;94.90;;;6.76;78.96;96730.31;5071707;28;20129;-84
2020/12/28 06:17:04;;;;;;;;;;;6.50;94.90;;;6.77;78.66;96723.84;5072211;28;20155;-83
2020/12/28 06:19:31;;;;;;;3.65;1.73;;;6.50;94.60;;;6.76;78.08;96738.41;5071467;28;19928;-83
2020/12/28 06:21:58;;;;;;;4.32;1.70;;;6.50;94.60;;;6.70;78.17;96734.03;5071941;28;20809;-83
2020/12/28 06:24:30;;;;;;;3.53;1.83;;;6.50;94.70;;;6.75;78.57;96742.19;5071696;28;20075;-83
2020/12/28 06:27:04;;;;;;;2.88;1.50;;;6.50;94.80;;;6.71;78.92;96741.88;5071737;28;20044;-83
2020/12/28 06:29:31;;;;;;;3.63;1.80;;;6.50;94.70;;;6.74;79.10;96752.19;5071268;28;20082;-83
2020/12/28 06:31:58;;;;;;;3.17;1.73;;;6.50;94.80;;;6.75;78.81;96753.81;5073566;28;20040;-85
2020/12/28 06:34:24;;;;;;;2.85;1.40;;;6.50;94.90;;;6.78;78.63;96764.13;5071455;28;20123;-86
2020/12/28 06:37:02;;;;;;;3.55;1.73;;;6.50;95.00;;;6.79;78.21;96759.53;5071845;28;20135;-86
2020/12/28 06:39:29;;;;;;;5.10;2.00;;;6.50;94.90;;;6.79;78.91;96770.34;5073669;28;20626;-83
2020/12/28 06:42:08;;;;;;;4.00;1.80;;;6.50;94.80;;;6.79;78.62;96768.44;5072528;28;20485;-83
2020/12/28 06:44:35;;;;;;;4.00;1.67;;;6.50;95.10;;;6.80;78.82;96772.78;5071389;28;20075;-83
2020/12/28 06:47:03;;;;;;;3.75;1.95;;;6.50;95.10;;;6.79;78.07;96768.44;5071472;28;20044;-83
2020/12/28 06:49:41;;;;;;;3.20;1.77;;;6.50;95.00;;;6.80;78.39;96769.28;5071230;28;20111;-83
2020/12/28 06:52:08;;;;;;;4.15;1.83;;;6.50;95.10;;;6.78;78.74;96772.22;5067744;28;20127;-84
2020/12/28 06:54:35;;;;;;;3.50;1.80;;;6.50;95.20;;;6.81;78.37;96773.59;5068764;28;20071;-84
2020/12/28 06:57:03;;;;;;;3.25;1.85;;;6.60;95.10;;;6.79;78.69;96770.34;5052538;28;20076;-84
2020/12/28 06:59:32;;;;;;;4.43;2.03;;;6.50;95.10;;;6.77;78.80;96775.19;5070329;28;20539;-83
2020/12/28 07:01:59;;;;;;;2.92;1.80;;;6.50;95.00;;;6.77;78.19;96783.28;5070521;28;20127;-83
2020/12/28 07:04:26;;;;;;;3.55;1.85;;;6.50;95.10;;;6.77;78.42;96786.78;5071289;28;20059;-84
2020/12/28 07:06:59;;;;;;;3.70;1.80;;;6.50;95.30;;;6.80;78.62;96785.50;5071555;28;20177;-83
2020/12/28 07:09:26;;;;;;;6.15;2.08;;;6.50;95.40;;;6.80;78.23;96790.91;5069475;28;20075;-84
2020/12/28 07:11:53;;;;;;;3.25;1.80;;;6.50;95.30;;;6.80;78.54;96788.19;5071510;28;20067;-84
2020/12/28 07:14:21;;;;;;;4.55;1.75;;;6.50;95.40;;;6.80;78.43;96789.00;5069613;28;20074;-84
2020/12/28 07:16:54;;;;;;;3.90;1.92;;;6.50;95.40;;;6.81;78.84;96790.63;5069553;28;20053;-85
2020/12/28 07:19:21;;;;;;;4.88;1.73;;;6.50;95.20;;;6.81;78.37;96785.22;5068919;28;20133;-84
2020/12/28 07:21:48;;;;;;;3.33;1.90;;;6.60;95.20;;;6.80;78.57;96788.19;5070577;28;20078;-84
2020/12/28 07:24:15;;;;;;;3.20;1.50;;;6.50;95.20;;;6.75;78.73;96786.25;5070836;28;20476;-83
2020/12/28 07:26:43;;;;;;;5.30;2.03;;;6.50;95.10;;;6.76;78.55;96781.63;5071707;28;20080;-83
2020/12/28 07:29:14;;;;;;;3.72;1.92;;;6.50;95.00;;;6.77;78.66;96788.69;5072017;28;20181;-83
2020/12/28 07:31:41;;;;;;;3.40;1.95;;;6.50;95.00;;;6.77;78.48;96786.00;5070791;28;20128;-84
2020/12/28 07:34:14;;;;;;;3.97;1.80;;;6.50;95.20;;;6.75;78.66;96793.53;5070157;28;20055;-84
2020/12/28 07:36:45;;;;;;;4.03;1.40;;;6.50;95.20;;;6.76;78.41;96797.84;5070498;28;20040;-84
2020/12/28 07:39:13;;;;;;;3.60;1.55;;;6.50;95.20;;;6.77;78.81;96792.22;5070187;28;20060;-84
2020/12/28 07:41:40;;;;;;;4.32;1.52;;;6.50;95.20;;;6.77;78.73;96800.31;5071829;28;20093;-84
2020/12/28 07:44:07;;;;;;;3.20;1.40;;;6.50;95.00;;;6.79;78.45;96802.78;5074413;28;20072;-84
2020/12/28 07:47:01;;;;;;;3.65;1.45;;;6.50;95.10;;;6.79;78.51;96800.06;5074146;28;20075;-84
2020/12/28 07:49:36;;;;;;;5.95;1.80;;;6.50;94.90;;;6.78;78.04;96804.66;5072715;28;20080;-84
2020/12/28 07:52:11;;;;;;;4.13;1.50;;;6.60;94.70;;;6.80;78.13;96802.53;5074676;28;20123;-84
2020/12/28 07:54:45;;;;;;;3.75;2.00;;;6.50;94.70;;;6.81;77.99;96806.84;5078038;28;20067;-83
2020/12/28 07:57:19;;;;;;;3.97;1.90;;;6.50;94.90;;;6.80;78.31;96804.41;5076691;28;20052;-83
2020/12/28 07:59:59;;;;;;;4.28;1.77;;;6.70;95.00;;;6.79;78.00;96817.09;5076836;28;20044;-83
2020/12/28 08:03:05;;;;;;;4.85;2.13;;;6.50;94.90;;;6.80;78.09;96807.13;5077499;28;20479;-83
2020/12/28 08:05:35;;;;;;;5.88;2.42;;;6.50;94.80;;;6.79;77.97;96810.88;5077604;28;20079;-83
2020/12/28 08:08:02;;;;;;;4.65;2.17;;;6.50;94.70;;;6.80;77.78;96823.34;5077268;28;20067;-83
2020/12/28 08:10:29;;;;;;;4.95;2.20;;;6.50;94.60;;;6.80;78.42;96820.63;5077763;28;20044;-83
2020/12/28 08:12:59;;;;;;;5.10;2.10;;;6.50;94.80;;;6.79;78.29;96816.28;5078039;28;20252;-83
2020/12/28 08:15:31;;;;;;;3.72;1.80;;;6.50;94.90;;;6.73;77.67;96809.19;5077761;28;20082;-83
2020/12/28 08:18:09;;;;;;;3.50;1.33;;;6.50;94.90;;;6.73;77.58;96801.06;5076923;28;20068;-83
2020/12/28 08:20:38;;;;;;;3.17;1.50;;;6.50;94.20;;;6.73;78.18;96792.97;5077087;28;20079;-83
2020/12/28 08:23:05;;;;;;;3.33;1.40;;;6.50;94.50;;;6.75;77.88;96796.25;5077606;28;20165;-83
2020/12/28 08:25:33;;;;;;;2.58;1.20;;;6.50;94.20;;;6.79;78.08;96790.06;5077469;28;20128;-83
2020/12/28 08:28:02;;;;;;;3.47;1.63;;;6.50;94.50;;;6.80;77.83;96783.59;5076966;28;20048;-83
2020/12/28 08:30:31;;;;;;;3.85;1.30;;;6.50;94.20;;;6.80;77.54;96782.78;5076969;28;20044;-83
2020/12/28 08:32:59;;;;;;;2.53;1.20;;;6.50;93.80;;;6.81;77.26;96795.22;5078416;28;20080;-83
2020/12/28 08:35:27;;;;;;;4.13;1.40;;;6.50;93.60;;;6.79;77.25;96798.16;5078696;28;20070;-83
2020/12/28 08:37:54;;;;;;;3.00;1.30;;;6.60;93.50;;;6.77;76.98;96810.31;5078226;28;20040;-83
2020/12/28 08:40:24;;;;;;;2.75;1.23;;;6.40;93.50;;;6.77;76.93;96808.41;5078326;28;20076;-83
2020/12/28 08:42:53;;;;;;;4.93;1.20;;;6.40;93.70;;;6.77;76.66;96810.31;5077957;28;20055;-83
2020/12/28 08:45:22;;;;;;;3.40;1.02;;;6.30;93.80;;;6.77;76.83;96813.00;5078237;28;20064;-83
2020/12/28 08:47:53;;;;;;;2.63;1.10;;;6.30;93.70;;;6.74;76.79;96816.22;5076418;28;20048;-83
2020/12/28 08:50:20;;;;;;;;;;;6.30;93.60;;;6.74;76.85;96818.91;5079029;28;20040;-83
2020/12/28 08:52:54;;;;;;;2.70;1.10;;;6.30;93.80;;;6.69;76.75;96822.38;5070543;28;19963;-84
2020/12/28 08:55:22;;;;;;;2.65;0.95;;;6.30;93.70;;;6.61;76.13;96826.34;5070201;28;20057;-83
2020/12/28 08:57:54;;;;;;;2.67;1.10;;;6.30;93.40;;;6.60;76.67;96829.28;5070221;28;20083;-82
2020/12/28 09:00:23;;;;;;;2.33;1.00;;;6.20;93.00;;;6.62;76.84;96829.84;5076958;28;20110;-82
2020/12/28 09:02:55;;;;;;;3.50;1.40;;;6.30;93.30;;;6.61;76.25;96825.53;5067853;28;20044;-82
2020/12/28 09:05:22;;;;;;;2.47;0.90;;;6.30;93.40;;;6.64;76.73;96830.41;5076427;28;20071;-84
2020/12/28 09:07:49;;;;;;;2.78;1.02;;;6.50;93.50;;;6.60;76.35;96843.59;5074447;28;20082;-83
2020/12/28 09:10:17;;;;;;;2.35;0.82;;;6.30;93.30;;;6.56;77.06;96844.34;5077808;28;20056;-83
2020/12/28 09:12:45;;;;;;;2.83;1.05;;;6.30;93.00;;;6.58;76.32;96840.31;5073330;28;20132;-83
2020/12/28 09:15:12;;;;;;;3.38;1.15;;;6.30;93.20;;;6.61;77.14;96850.66;5072591;28;20407;-83
2020/12/28 09:17:39;;;;;;;3.28;0.90;;;6.30;93.50;;;6.61;76.91;96860.66;5072660;28;20052;-84
2020/12/28 09:20:07;;;;;;;3.10;0.88;;;6.30;93.30;;;6.59;77.05;96863.59;5074304;28;20712;-84
2020/12/28 09:22:34;;;;;;;2.88;1.10;;;6.30;93.20;;;6.62;76.85;96871.19;5073659;28;20427;-85
2020/12/28 09:25:01;;;;;;;6.50;1.17;;;6.40;93.30;;;6.58;76.99;96867.34;5072811;28;20068;-83
2020/12/28 09:27:28;;;;;;;2.80;0.98;;;6.40;92.70;;;6.60;77.05;96867.91;5077597;28;20121;-83
2020/12/28 09:29:58;;;;;;;2.90;1.00;;;6.40;93.10;;;6.64;77.26;96858.25;5076351;28;20062;-83
2020/12/28 09:32:24;;;;;;;3.50;0.80;;;6.40;93.20;;;6.63;76.54;96856.63;5076532;28;20562;-83
2020/12/28 09:34:52;;;;;;;1.83;0.70;;;6.40;92.80;;;6.65;76.51;96846.38;5074035;28;20041;-83
2020/12/28 09:37:18;;;;;;;4.50;0.90;;;6.50;92.70;;;6.68;76.67;96842.34;5073045;28;20500;-84
2020/12/28 09:39:45;;;;;;;4.57;0.90;;;6.50;93.00;;;6.65;75.88;96848.25;5066764;28;20065;-85
2020/12/28 09:42:12;;;;;;;2.25;0.77;;;6.50;92.70;;;6.67;76.82;96839.91;5050455;28;20377;-84
2020/12/28 09:44:39;;;;;;;2.65;0.73;;;6.50;92.90;;;6.63;76.75;96850.41;5051721;28;20745;-84
2020/12/28 09:47:07;;;;;;;4.82;1.10;;;6.50;92.70;;;6.64;76.79;96843.91;5056707;28;20714;-84
2020/12/28 09:49:33;;;;;;;2.83;0.80;;;6.50;93.00;;;6.64;77.08;96831.25;5063374;28;20405;-84
2020/12/28 09:52:00;;;;;;;4.43;0.90;;;6.50;93.10;;;6.67;77.36;96831.81;5065360;28;20438;-84
2020/12/28 09:54:27;;;;;;;3.83;0.82;;;6.50;93.10;;;6.69;77.24;96824.28;5070607;28;20143;-84
2020/12/28 09:56:54;;;;;;;4.55;1.00;;;6.60;93.20;;;6.72;77.25;96827.28;5071775;28;20127;-85
2020/12/28 09:59:20;;;;;;;3.15;0.82;;;6.60;93.10;;;6.73;77.44;96830.81;5071368;28;20076;-84
2020/12/28 10:01:47;;;;;;;3.00;0.80;;;6.60;93.30;;;6.75;77.07;96834.06;5071807;28;20064;-84
2020/12/28 10:04:15;;;;;;;2.80;0.90;;;6.60;93.20;;;6.78;77.18;96838.97;5069688;28;20104;-85
2020/12/28 10:06:43;;;;;;;2.25;1.00;;;6.60;93.00;;;6.78;77.20;96847.09;5071487;28;20048;-84
2020/12/28 10:09:11;;;;;;;3.40;0.90;;;6.60;92.90;;;6.78;76.86;96838.97;5071488;28;20048;-84
2020/12/28 10:11:38;;;;;;;2.92;0.90;;;6.60;93.40;;;6.79;77.57;96835.19;5070186;28;20041;-84
2020/12/28 10:14:05;;;;;;;3.30;0.98;;;6.60;93.50;;;6.80;77.57;96848.47;5071552;28;20511;-85
2020/12/28 10:16:32;;;;;;;3.38;1.10;;;6.60;93.40;;;6.79;76.77;96849.50;5071672;28;20139;-84
2020/12/28 10:18:59;;;;;;;4.93;0.90;;;6.60;93.20;;;6.77;77.08;96854.34;5070893;28;20143;-85
2020/12/28 10:21:28;;;;;;;1.88;0.80;;;6.60;93.10;;;6.77;77.12;96864.34;5070356;28;20048;-85
2020/12/28 10:23:55;;;;;;;3.25;1.05;;;6.60;92.80;;;6.77;76.81;96858.94;5071686;28;20076;-84
2020/12/28 10:26:24;;;;;;;2.92;0.90;;;6.60;92.70;;;6.78;77.03;96860.59;5071475;28;20185;-84
2020/12/28 10:28:53;;;;;;;3.92;1.00;;;6.60;92.70;;;6.77;77.05;96858.94;5071193;28;20148;-84
2020/12/28 10:31:21;;;;;;;2.83;0.88;;;6.60;92.70;;;6.80;76.79;96848.47;5071435;28;20572;-84
2020/12/28 10:33:49;;;;;;;2.78;0.90;;;6.60;92.40;;;6.82;76.79;96846.31;5071162;28;20048;-84
2020/12/28 10:36:18;;;;;;;2.90;0.90;;;6.60;92.70;;;6.82;77.46;96843.63;5071427;28;20040;-85
2020/12/28 10:38:46;;;;;;;3.58;1.00;;;6.60;92.70;;;6.83;76.43;96831.75;5070994;28;20377;-84
2020/12/28 10:41:13;;;;;;;2.10;0.80;;;6.60;93.00;;;6.81;76.96;96823.06;5071414;28;20617;-84
2020/12/28 10:43:40;;;;;;;3.28;1.00;;;6.60;92.90;;;6.84;76.91;96819.06;5070818;28;20401;-85
2020/12/28 10:46:08;;;;;;;5.50;1.00;;;6.60;92.70;;;6.83;76.39;96814.69;5071057;28;20129;-85
2020/12/28 10:48:36;;;;;;;3.53;1.10;;;6.60;92.70;;;6.82;76.34;96813.09;5070942;28;20052;-84
2020/12/28 10:51:03;;;;;;;2.50;1.02;;;6.60;92.70;;;6.80;76.88;96812.53;5071026;28;20047;-84